Time;durP1;ratioP1;P1;durP2;ratioP2;P2;SDS_P1;SDS_P2;PMS_P1;PMS_P2;Temp;Humidity;BMP_temperature;BMP_pressure;BME280_temperature;BME280_humidity;BME280_pressure;Samples;Min_cycle;Max_cycle;Signal;HPM_P1;HPM_P2
2021/10/06 00:01:38;;;;;;;4.28;0.77;;;;;13.80;100856.00;;;;4857693;29;20129;-78
2021/10/06 00:04:08;;;;;;;5.38;0.80;;;;;13.90;100872.00;;;;4875657;29;20057;-77
2021/10/06 00:06:39;;;;;;;4.75;0.90;;;;;13.90;100844.00;;;;4859038;29;20101;-75
2021/10/06 00:09:09;;;;;;;6.05;0.90;;;;;14.00;100850.00;;;;4872342;29;20997;-76
2021/10/06 00:11:40;;;;;;;6.55;1.33;;;;;14.10;100857.00;;;;4874687;29;20142;-79
2021/10/06 00:14:12;;;;;;;4.18;0.90;;;;;14.00;100859.00;;;;4874140;29;20056;-77
2021/10/06 00:16:42;;;;;;;6.00;1.00;;;;;13.90;100874.00;;;;4864683;29;20056;-77
2021/10/06 00:19:11;;;;;;;10.18;0.93;;;;;14.00;100874.00;;;;4858288;29;20147;-78
2021/10/06 00:21:41;;;;;;;5.70;1.25;;;;;13.90;100880.00;;;;4857616;29;20044;-78
2021/10/06 00:24:10;;;;;;;5.38;0.93;;;;;13.90;100876.00;;;;4855089;29;20053;-76
2021/10/06 00:26:40;;;;;;;4.68;1.10;;;;;13.80;100886.00;;;;4856124;29;20053;-75
2021/10/06 00:29:09;;;;;;;4.22;1.00;;;;;13.70;100876.00;;;;4855116;29;20057;-75
2021/10/06 00:31:39;;;;;;;4.63;1.35;;;;;13.60;100865.00;;;;4857219;29;20053;-79
2021/10/06 00:34:08;;;;;;;1.73;0.70;;;;;13.60;100848.00;;;;4855692;29;20049;-77
2021/10/06 00:36:38;;;;;;;4.30;0.80;;;;;13.60;100854.00;;;;4856826;29;20041;-76
2021/10/06 00:39:07;;;;;;;2.88;0.82;;;;;13.70;100858.00;;;;4856096;29;20065;-78
2021/10/06 00:42:03;;;;;;;8.95;0.93;;;;;13.80;100858.00;;;;4855828;29;20053;-78
2021/10/06 00:44:35;;;;;;;11.65;1.08;;;;;13.80;100864.00;;;;4869569;29;20501;-74
2021/10/06 00:47:09;;;;;;;5.65;0.82;;;;;13.70;100892.00;;;;4855930;29;20118;-75
2021/10/06 00:49:41;;;;;;;6.95;1.00;;;;;13.50;100887.00;;;;4856048;29;20128;-77
2021/10/06 00:52:11;;;;;;;;;;;;;13.30;100892.00;;;;4856812;29;20113;-78
2021/10/06 00:54:41;;;;;;;6.20;0.98;;;;;13.10;100862.00;;;;4856883;29;20407;-78
2021/10/06 00:57:12;;;;;;;3.75;0.88;;;;;13.00;100862.00;;;;4855664;29;20050;-77
2021/10/06 00:59:42;;;;;;;6.57;0.88;;;;;12.90;100868.00;;;;4856671;29;20054;-78
2021/10/06 01:02:11;;;;;;;3.58;0.80;;;;;12.90;100868.00;;;;4861054;29;20045;-78
2021/10/06 01:04:41;;;;;;;12.85;1.35;;;;;12.90;100880.00;;;;4875030;29;20154;-77
2021/10/06 01:07:10;;;;;;;5.40;1.00;;;;;12.90;100877.00;;;;4874537;29;20048;-76
2021/10/06 01:09:41;;;;;;;8.55;1.30;;;;;12.90;100863.00;;;;4873901;29;20056;-77
2021/10/06 01:12:10;;;;;;;4.32;1.10;;;;;13.10;100851.00;;;;4877280;29;20081;-76
2021/10/06 01:14:40;;;;;;;6.28;1.38;;;;;13.20;100825.00;;;;4875431;29;20049;-77
2021/10/06 01:17:10;;;;;;;3.88;0.90;;;;;13.20;100829.00;;;;4873886;29;20162;-76
2021/10/06 01:19:41;;;;;;;4.65;0.90;;;;;13.30;100824.00;;;;4873769;29;20080;-77
2021/10/06 01:22:15;;;;;;;5.38;1.02;;;;;13.30;100798.00;;;;4873504;29;20056;-77
2021/10/06 01:24:44;;;;;;;5.05;0.85;;;;;13.40;100782.00;;;;4874560;29;20454;-77
2021/10/06 01:27:14;;;;;;;2.72;1.30;;;;;13.40;100800.00;;;;4873938;29;20057;-79
2021/10/06 01:29:43;;;;;;;1.80;0.63;;;;;13.30;100811.00;;;;4872287;29;20052;-77
2021/10/06 01:32:15;;;;;;;5.55;0.90;;;;;13.20;100821.00;;;;4873736;29;20073;-78
2021/10/06 01:34:56;;;;;;;1.98;0.80;;;;;13.10;100798.00;;;;4873522;29;20041;-77
2021/10/06 01:37:27;;;;;;;3.33;0.82;;;;;13.00;100813.00;;;;4873949;29;20421;-77
2021/10/06 01:39:57;;;;;;;8.85;0.90;;;;;13.00;100791.00;;;;4873557;29;20113;-76
2021/10/06 01:42:26;;;;;;;9.73;1.10;;;;;13.20;100789.00;;;;4874094;29;20049;-76
2021/10/06 01:44:55;;;;;;;7.05;2.75;;;;;13.40;100787.00;;;;4874059;29;20428;-76
2021/10/06 01:47:27;;;;;;;14.32;1.50;;;;;13.40;100785.00;;;;4873312;29;20061;-77
2021/10/06 01:49:56;;;;;;;;;;;;;13.30;100787.00;;;;4874087;29;20390;-77
2021/10/06 01:52:25;;;;;;;4.32;0.70;;;;;13.30;100771.00;;;;4873403;29;19935;-77
2021/10/06 01:54:55;;;;;;;3.17;0.82;;;;;13.30;100762.00;;;;4873650;29;20045;-77
2021/10/06 01:57:24;;;;;;;4.57;1.13;;;;;13.30;100770.00;;;;4872152;29;20052;-77
2021/10/06 01:59:53;;;;;;;9.55;1.23;;;;;13.20;100739.00;;;;4872204;29;20089;-77
2021/10/06 02:02:23;;;;;;;3.63;1.20;;;;;13.20;100752.00;;;;4871623;29;20591;-76
2021/10/06 02:04:52;;;;;;;5.78;1.05;;;;;13.10;100762.00;;;;4872635;29;20052;-77
2021/10/06 02:07:21;;;;;;;7.35;1.08;;;;;13.10;100769.00;;;;4871714;29;20053;-78
2021/10/06 02:09:51;;;;;;;4.50;0.88;;;;;13.00;100782.00;;;;4871369;29;20131;-76
2021/10/06 02:12:20;;;;;;;4.72;0.85;;;;;13.00;100774.00;;;;4872785;29;20410;-77
2021/10/06 02:14:50;;;;;;;4.00;0.70;;;;;13.10;100765.00;;;;4873327;29;20053;-77
2021/10/06 02:17:19;;;;;;;10.00;0.95;;;;;13.20;100772.00;;;;4872742;29;20041;-78
2021/10/06 02:19:49;;;;;;;2.28;0.80;;;;;13.10;100764.00;;;;4872545;29;20537;-76
2021/10/06 02:22:18;;;;;;;4.20;0.90;;;;;13.10;100750.00;;;;4873128;29;20045;-78
2021/10/06 02:24:48;;;;;;;4.57;0.75;;;;;13.10;100737.00;;;;4872740;29;20053;-77
2021/10/06 02:27:18;;;;;;;8.27;1.15;;;;;13.20;100736.00;;;;4873276;29;20397;-78
2021/10/06 02:29:47;;;;;;;2.95;0.80;;;;;13.30;100725.00;;;;4873256;29;20053;-76
2021/10/06 02:32:16;;;;;;;12.95;1.45;;;;;13.40;100741.00;;;;4871110;29;20049;-77
2021/10/06 02:34:46;;;;;;;5.93;1.00;;;;;13.30;100744.00;;;;4873170;29;20136;-77
2021/10/06 02:37:15;;;;;;;6.53;1.52;;;;;13.10;100732.00;;;;4872586;29;20049;-76
2021/10/06 02:39:45;;;;;;;2.70;0.90;;;;;13.00;100718.00;;;;4873049;29;20144;-76
2021/10/06 02:42:14;;;;;;;7.68;1.38;;;;;12.90;100756.00;;;;4873077;29;20045;-78
2021/10/06 02:44:44;;;;;;;5.50;1.02;;;;;12.80;100744.00;;;;4872902;29;20064;-77
2021/10/06 02:47:14;;;;;;;4.80;1.00;;;;;12.70;100753.00;;;;4872766;29;20064;-75
2021/10/06 02:49:43;;;;;;;3.42;1.10;;;;;12.70;100755.00;;;;4872789;29;20049;-76
2021/10/06 02:52:12;;;;;;;4.78;1.20;;;;;12.60;100743.00;;;;4872246;29;20144;-77
2021/10/06 02:54:43;;;;;;;7.40;0.93;;;;;12.60;100736.00;;;;4872903;29;20057;-76
2021/10/06 02:57:12;;;;;;;5.78;1.13;;;;;12.60;100751.00;;;;4872967;29;20535;-78
2021/10/06 02:59:42;;;;;;;7.43;0.70;;;;;12.60;100754.00;;;;4873501;29;20184;-77
2021/10/06 03:02:11;;;;;;;5.05;1.10;;;;;12.60;100736.00;;;;4872592;29;20045;-77
2021/10/06 03:04:40;;;;;;;3.88;1.05;;;;;12.60;100756.00;;;;4872888;29;20067;-76
2021/10/06 03:07:10;;;;;;;6.68;1.00;;;;;12.60;100737.00;;;;4873312;29;20041;-76
2021/10/06 03:09:40;;;;;;;4.28;1.13;;;;;12.60;100733.00;;;;4872283;29;20052;-77
2021/10/06 03:12:11;;;;;;;4.35;0.77;;;;;12.60;100738.00;;;;4873029;29;20505;-76
2021/10/06 03:14:41;;;;;;;4.28;1.15;;;;;12.60;100739.00;;;;4872276;29;20059;-78
2021/10/06 03:17:10;;;;;;;5.25;1.05;;;;;12.70;100709.00;;;;4872215;29;20049;-77
2021/10/06 03:19:40;;;;;;;4.05;0.73;;;;;12.70;100716.00;;;;4872273;29;20413;-77
2021/10/06 03:22:09;;;;;;;6.40;1.10;;;;;12.70;100714.00;;;;4873289;29;20083;-76
2021/10/06 03:24:39;;;;;;;2.88;1.15;;;;;12.60;100697.00;;;;4873084;29;20690;-77
2021/10/06 03:27:08;;;;;;;5.55;1.08;;;;;12.50;100703.00;;;;4872701;29;20420;-78
2021/10/06 03:29:38;;;;;;;3.85;0.70;;;;;12.50;100693.00;;;;4872583;29;20053;-77
2021/10/06 03:32:07;;;;;;;5.10;0.90;;;;;12.50;100704.00;;;;4872073;29;20120;-77
2021/10/06 03:34:37;;;;;;;2.45;0.90;;;;;12.40;100674.00;;;;4870904;29;20080;-76
2021/10/06 03:37:06;;;;;;;5.30;1.20;;;;;12.40;100683.00;;;;4872252;29;20053;-77
2021/10/06 03:39:36;;;;;;;4.20;1.08;;;;;12.50;100698.00;;;;4872529;29;20176;-77
2021/10/06 03:42:05;;;;;;;4.43;0.85;;;;;12.60;100696.00;;;;4872272;29;20082;-76
2021/10/06 03:44:35;;;;;;;8.82;1.05;;;;;12.60;100685.00;;;;4875313;29;20096;-75
2021/10/06 03:47:04;;;;;;;5.00;1.00;;;;;12.50;100663.00;;;;4875724;29;20055;-76
2021/10/06 03:49:34;;;;;;;5.57;0.90;;;;;12.50;100647.00;;;;4876104;29;20417;-76
2021/10/06 03:52:03;;;;;;;2.92;0.85;;;;;12.70;100652.00;;;;4875693;29;20049;-76
2021/10/06 03:54:33;;;;;;;2.33;1.02;;;;;12.80;100657.00;;;;4875805;29;20048;-76
2021/10/06 03:57:02;;;;;;;9.23;1.20;;;;;12.80;100655.00;;;;4876674;29;20048;-78
2021/10/06 03:59:31;;;;;;;3.58;1.13;;;;;12.80;100655.00;;;;4876093;29;20053;-76
2021/10/06 04:02:01;;;;;;;3.42;0.98;;;;;12.70;100653.00;;;;4877118;29;20512;-77
2021/10/06 04:04:30;;;;;;;5.75;0.80;;;;;12.70;100633.00;;;;4878932;29;20509;-77
2021/10/06 04:06:59;;;;;;;5.72;1.15;;;;;12.50;100631.00;;;;4875482;29;20049;-76
2021/10/06 04:09:29;;;;;;;3.55;0.80;;;;;12.40;100640.00;;;;4875340;29;20041;-76
2021/10/06 04:11:58;;;;;;;6.15;1.20;;;;;12.30;100632.00;;;;4875375;29;20485;-76
2021/10/06 04:14:28;;;;;;;4.85;1.23;;;;;12.20;100626.00;;;;4875717;29;20060;-76
2021/10/06 04:16:57;;;;;;;7.18;1.30;;;;;12.20;100623.00;;;;4875381;29;20166;-77
2021/10/06 04:19:27;;;;;;;7.00;1.17;;;;;12.10;100633.00;;;;4874863;29;20131;-77
2021/10/06 04:21:56;;;;;;;4.03;1.20;;;;;12.10;100598.00;;;;4875475;29;20049;-75
2021/10/06 04:24:25;;;;;;;6.95;1.40;;;;;12.00;100623.00;;;;4876400;29;20097;-76
2021/10/06 04:26:55;;;;;;;4.25;1.08;;;;;11.90;100621.00;;;;4874629;29;20080;-77
2021/10/06 04:29:25;;;;;;;3.10;1.10;;;;;11.80;100628.00;;;;4875029;29;20049;-77
2021/10/06 04:31:54;;;;;;;7.45;1.10;;;;;11.70;100620.00;;;;4875143;29;20596;-76
2021/10/06 04:34:24;;;;;;;5.00;1.17;;;;;11.60;100628.00;;;;4874734;29;20052;-76
2021/10/06 04:36:53;;;;;;;4.55;1.05;;;;;11.60;100625.00;;;;4874994;29;20148;-77
2021/10/06 04:39:23;;;;;;;8.73;1.10;;;;;11.50;100609.00;;;;4874830;29;20606;-77
2021/10/06 04:41:53;;;;;;;6.38;1.20;;;;;11.60;100597.00;;;;4874700;29;20049;-77
2021/10/06 04:44:23;;;;;;;4.53;1.17;;;;;11.50;100571.00;;;;4874839;29;20079;-76
2021/10/06 04:46:52;;;;;;;4.40;1.15;;;;;11.40;100568.00;;;;4874915;29;20441;-78
2021/10/06 04:49:21;;;;;;;5.63;1.08;;;;;11.30;100545.00;;;;4875740;29;20057;-78
2021/10/06 04:51:51;;;;;;;3.88;1.05;;;;;11.30;100587.00;;;;4875263;29;20056;-77
2021/10/06 04:54:20;;;;;;;4.30;1.48;;;;;11.30;100619.00;;;;4873994;29;20104;-77
2021/10/06 04:56:50;;;;;;;7.78;1.15;;;;;11.50;100620.00;;;;4874101;29;20110;-76
2021/10/06 04:59:19;;;;;;;5.93;1.27;;;;;11.80;100627.00;;;;4874433;29;20096;-77
2021/10/06 05:01:49;;;;;;;4.57;1.33;;;;;12.10;100611.00;;;;4874666;29;20061;-77
2021/10/06 05:04:18;;;;;;;2.67;1.23;;;;;12.20;100599.00;;;;4874477;29;20065;-76
2021/10/06 05:06:47;;;;;;;4.53;1.13;;;;;12.30;100573.00;;;;4874472;29;20061;-77
2021/10/06 05:09:18;;;;;;;6.57;1.40;;;;;12.20;100553.00;;;;4874813;29;20509;-76
2021/10/06 05:11:47;;;;;;;3.70;1.42;;;;;12.20;100546.00;;;;4874281;29;20049;-75
2021/10/06 05:14:16;;;;;;;3.30;1.00;;;;;12.20;100603.00;;;;4874584;29;20057;-77
2021/10/06 05:16:46;;;;;;;6.03;1.20;;;;;12.20;100596.00;;;;4875056;29;20045;-77
2021/10/06 05:19:16;;;;;;;3.10;1.10;;;;;12.30;100622.00;;;;4874480;29;20045;-78
2021/10/06 05:21:45;;;;;;;4.97;1.20;;;;;12.50;100609.00;;;;4873988;29;20041;-77
2021/10/06 05:24:14;;;;;;;3.38;0.95;;;;;12.60;100611.00;;;;4873792;29;20049;-77
2021/10/06 05:26:44;;;;;;;3.53;1.13;;;;;12.60;100596.00;;;;4874191;29;20053;-76
2021/10/06 05:29:13;;;;;;;3.75;1.23;;;;;12.60;100576.00;;;;4872911;29;20057;-76
2021/10/06 05:31:42;;;;;;;3.17;1.00;;;;;12.60;100548.00;;;;4874450;29;20115;-78
2021/10/06 05:34:12;;;;;;;3.80;1.00;;;;;12.60;100532.00;;;;4873665;29;20179;-77
2021/10/06 05:36:41;;;;;;;3.20;1.17;;;;;12.60;100534.00;;;;4874163;29;20048;-77
2021/10/06 05:39:11;;;;;;;4.30;1.33;;;;;12.60;100521.00;;;;4873508;29;20423;-76
2021/10/06 05:41:41;;;;;;;3.88;1.10;;;;;12.60;100510.00;;;;4874329;29;20512;-77
2021/10/06 05:44:10;;;;;;;6.20;1.42;;;;;12.50;100505.00;;;;4873777;29;20059;-78
2021/10/06 05:46:40;;;;;;;6.57;1.35;;;;;12.50;100499.00;;;;4873711;29;20052;-76
2021/10/06 05:49:09;;;;;;;2.85;0.90;;;;;12.40;100484.00;;;;4874004;29;20044;-77
2021/10/06 05:51:39;;;;;;;4.95;1.63;;;;;12.40;100484.00;;;;4873790;29;20512;-76
2021/10/06 05:54:08;;;;;;;7.72;1.60;;;;;12.40;100502.00;;;;4873358;29;20090;-77
2021/10/06 05:56:39;;;;;;;5.10;1.10;;;;;12.40;100510.00;;;;4873634;29;20133;-77
2021/10/06 05:59:08;;;;;;;7.22;1.60;;;;;12.40;100532.00;;;;4873468;29;20429;-77
2021/10/06 06:01:37;;;;;;;6.57;1.17;;;;;12.60;100546.00;;;;4872970;29;20528;-76
2021/10/06 06:04:07;;;;;;;11.13;1.75;;;;;12.70;100543.00;;;;4873540;29;20064;-78
2021/10/06 06:06:41;;;;;;;5.22;1.58;;;;;12.70;100525.00;;;;4873059;29;20102;-77
2021/10/06 06:09:12;;;;;;;3.28;1.10;;;;;12.70;100567.00;;;;4873470;29;20049;-76
2021/10/06 06:11:41;;;;;;;6.43;1.40;;;;;12.70;100551.00;;;;4872877;29;20049;-80
2021/10/06 06:14:11;;;;;;;4.47;1.63;;;;;12.70;100596.00;;;;4872865;29;20053;-77
2021/10/06 06:16:40;;;;;;;5.22;1.40;;;;;12.80;100599.00;;;;4873579;29;20049;-77
2021/10/06 06:19:10;;;;;;;3.35;1.23;;;;;12.90;100590.00;;;;4873224;29;20045;-76
2021/10/06 06:21:40;;;;;;;3.65;1.30;;;;;12.90;100569.00;;;;4873270;29;20041;-76
2021/10/06 06:24:10;;;;;;;9.27;1.48;;;;;13.00;100516.00;;;;4873198;29;20105;-78
2021/10/06 06:26:39;;;;;;;5.25;1.13;;;;;12.90;100495.00;;;;4873345;29;20056;-77
2021/10/06 06:29:09;;;;;;;6.38;1.38;;;;;12.90;100496.00;;;;4873254;29;20041;-78
2021/10/06 06:31:38;;;;;;;2.72;1.30;;;;;12.90;100495.00;;;;4872945;29;20064;-76
2021/10/06 06:34:08;;;;;;;3.95;1.20;;;;;12.80;100493.00;;;;4872442;29;20489;-76
2021/10/06 06:36:37;;;;;;;6.30;1.38;;;;;12.80;100487.00;;;;4873110;29;20049;-76
2021/10/06 06:39:06;;;;;;;8.70;1.80;;;;;12.90;100500.00;;;;4873110;29;20053;-77
2021/10/06 06:41:36;;;;;;;3.90;1.55;;;;;12.90;100491.00;;;;4873297;29;20056;-76
2021/10/06 06:44:05;;;;;;;5.60;1.52;;;;;12.90;100510.00;;;;4872860;29;20059;-77
2021/10/06 06:46:36;;;;;;;2.63;1.15;;;;;12.90;100506.00;;;;4854278;29;20439;-77
2021/10/06 06:49:06;;;;;;;5.13;1.77;;;;;12.80;100505.00;;;;4853660;29;20543;-76
2021/10/06 06:51:36;;;;;;;6.93;1.50;;;;;12.80;100515.00;;;;4854577;29;20050;-76
2021/10/06 06:54:05;;;;;;;5.22;1.50;;;;;12.70;100503.00;;;;4854618;29;20505;-77
2021/10/06 06:56:38;;;;;;;6.95;1.48;;;;;12.60;100486.00;;;;4858793;29;20500;-76
2021/10/06 06:59:09;;;;;;;4.43;1.33;;;;;12.50;100489.00;;;;4858233;29;20058;-76
2021/10/06 07:01:39;;;;;;;3.80;1.23;;;;;12.40;100484.00;;;;4854438;29;20132;-78
2021/10/06 07:04:09;;;;;;;6.03;1.50;;;;;12.30;100489.00;;;;4854540;29;20065;-76
2021/10/06 07:06:38;;;;;;;4.40;1.30;;;;;12.40;100476.00;;;;4854609;29;20191;-77
2021/10/06 07:09:08;;;;;;;3.63;1.13;;;;;12.40;100474.00;;;;4854553;29;20049;-77
2021/10/06 07:11:41;;;;;;;2.58;1.08;;;;;12.40;100468.00;;;;4854115;29;20053;-78
2021/10/06 07:14:10;;;;;;;5.10;1.10;;;;;12.40;100476.00;;;;4852555;29;20842;-78
2021/10/06 07:16:40;;;;;;;9.15;1.45;;;;;12.40;100482.00;;;;4854285;29;20053;-77
2021/10/06 07:19:09;;;;;;;5.38;1.40;;;;;12.30;100476.00;;;;4856117;29;20054;-78
2021/10/06 07:21:43;;;;;;;3.92;1.23;;;;;12.40;100476.00;;;;4857890;29;20062;-77
2021/10/06 07:24:16;;;;;;;8.43;2.00;;;;;12.50;100474.00;;;;4858119;29;20513;-77
2021/10/06 07:26:46;;;;;;;8.00;1.80;;;;;12.60;100483.00;;;;4858032;29;20049;-76
2021/10/06 07:29:16;;;;;;;12.70;1.63;;;;;12.60;100495.00;;;;4858174;29;20053;-78
2021/10/06 07:31:46;;;;;;;6.43;1.58;;;;;12.50;100494.00;;;;4857868;29;20191;-77
2021/10/06 07:34:16;;;;;;;4.95;1.55;;;;;12.50;100460.00;;;;4857766;29;20406;-78
2021/10/06 07:36:45;;;;;;;8.82;1.30;;;;;12.50;100479.00;;;;4856374;29;20045;-78
2021/10/06 07:39:14;;;;;;;6.68;1.70;;;;;12.50;100491.00;;;;4877545;29;20417;-76
2021/10/06 07:41:44;;;;;;;7.22;1.50;;;;;12.40;100509.00;;;;4875828;29;20118;-78
2021/10/06 07:44:14;;;;;;;7.28;1.30;;;;;12.30;100502.00;;;;4875448;29;20068;-76
2021/10/06 07:46:44;;;;;;;5.50;1.50;;;;;12.20;100494.00;;;;4876222;29;20056;-77
2021/10/06 07:49:13;;;;;;;3.55;1.27;;;;;12.20;100501.00;;;;4874179;29;20444;-77
2021/10/06 07:51:43;;;;;;;5.28;1.30;;;;;12.20;100499.00;;;;4875277;29;20053;-77
2021/10/06 07:54:12;;;;;;;9.02;1.98;;;;;12.10;100483.00;;;;4875531;29;20053;-78
2021/10/06 07:56:42;;;;;;;9.25;1.50;;;;;12.00;100483.00;;;;4875570;29;20059;-77
2021/10/06 07:59:11;;;;;;;2.70;1.00;;;;;11.90;100488.00;;;;4875585;29;20082;-77
2021/10/06 08:01:40;;;;;;;4.30;1.40;;;;;11.90;100487.00;;;;4875527;29;20057;-77
2021/10/06 08:04:26;;;;;;;6.05;1.48;;;;;11.90;100477.00;;;;4875453;29;20470;-75
2021/10/06 08:06:56;;;;;;;3.53;1.50;;;;;11.90;100484.00;;;;4875068;29;20490;-76
2021/10/06 08:09:25;;;;;;;4.93;1.50;;;;;11.90;100509.00;;;;4875709;29;20064;-77
2021/10/06 08:11:54;;;;;;;5.25;1.95;;;;;11.80;100486.00;;;;4874358;29;20048;-76
2021/10/06 08:14:24;;;;;;;7.32;1.65;;;;;11.90;100493.00;;;;4875381;29;20057;-77
2021/10/06 08:16:53;;;;;;;5.78;1.67;;;;;12.00;100481.00;;;;4874921;29;20064;-78
2021/10/06 08:19:23;;;;;;;4.22;1.30;;;;;12.00;100464.00;;;;4875378;29;20053;-78
2021/10/06 08:21:53;;;;;;;8.32;1.73;;;;;12.00;100482.00;;;;4875297;29;20053;-77
2021/10/06 08:24:22;;;;;;;8.05;1.65;;;;;12.00;100488.00;;;;4875182;29;20049;-77
2021/10/06 08:26:52;;;;;;;5.30;1.63;;;;;12.00;100492.00;;;;4875072;29;20064;-77
2021/10/06 08:29:21;;;;;;;5.05;1.70;;;;;12.00;100481.00;;;;4874634;29;20064;-75
2021/10/06 08:31:53;;;;;;;5.13;1.80;;;;;12.00;100495.00;;;;4874846;29;20075;-77
2021/10/06 08:34:23;;;;;;;7.60;1.85;;;;;11.90;100486.00;;;;4874741;29;20406;-77
2021/10/06 08:36:52;;;;;;;8.65;1.90;;;;;11.90;100481.00;;;;4874775;29;20516;-77
2021/10/06 08:39:22;;;;;;;10.68;1.65;;;;;11.90;100463.00;;;;4874797;29;20057;-78
2021/10/06 08:41:51;;;;;;;6.93;1.90;;;;;12.00;100470.00;;;;4874600;29;20048;-76
2021/10/06 08:44:29;;;;;;;19.63;3.38;;;;;12.00;100460.00;;;;4875654;29;20045;-76
2021/10/06 08:46:59;;;;;;;10.63;1.90;;;;;12.00;100475.00;;;;4875085;29;20505;-76
2021/10/06 08:49:28;;;;;;;8.63;1.80;;;;;12.10;100481.00;;;;4874876;29;20097;-78
2021/10/06 08:51:58;;;;;;;7.53;1.52;;;;;12.00;100479.00;;;;4874749;29;20572;-77
2021/10/06 08:54:28;;;;;;;6.53;1.65;;;;;11.90;100488.00;;;;4874117;29;20112;-76
2021/10/06 08:56:58;;;;;;;6.93;1.60;;;;;11.90;100489.00;;;;4874335;29;20124;-77
2021/10/06 08:59:28;;;;;;;13.77;1.98;;;;;11.90;100492.00;;;;4874121;29;20436;-78
2021/10/06 09:02:11;;;;;;;7.15;1.60;;;;;11.90;100477.00;;;;4874542;29;20076;-78
2021/10/06 09:04:41;;;;;;;9.02;1.70;;;;;11.90;100503.00;;;;4873996;29;20560;-76
2021/10/06 09:07:11;;;;;;;5.05;1.65;;;;;11.90;100497.00;;;;4874799;29;20445;-78
2021/10/06 09:09:41;;;;;;;3.08;1.40;;;;;11.90;100497.00;;;;4874310;29;20508;-78
2021/10/06 09:12:17;;;;;;;8.05;1.80;;;;;11.90;100492.00;;;;4873002;29;20159;-76
2021/10/06 09:14:47;;;;;;;13.25;1.92;;;;;12.00;100489.00;;;;4874464;29;20049;-76
2021/10/06 09:17:20;;;;;;;15.43;2.28;;;;;12.00;100504.00;;;;4873796;29;20072;-78
2021/10/06 09:19:53;;;;;;;9.93;2.15;;;;;12.10;100506.00;;;;4874091;29;20496;-77
2021/10/06 09:22:27;;;;;;;10.48;1.60;;;;;12.20;100504.00;;;;4873813;29;20041;-75
2021/10/06 09:25:07;;;;;;;9.68;2.08;;;;;12.20;100490.00;;;;4874241;29;20428;-77
2021/10/06 09:27:42;;;;;;;7.20;1.57;;;;;12.30;100484.00;;;;4873788;29;20068;-78
2021/10/06 09:30:13;;;;;;;8.65;1.67;;;;;12.30;100469.00;;;;4874424;29;20545;-78
2021/10/06 09:32:46;;;;;;;6.57;1.85;;;;;12.40;100496.00;;;;4874215;29;20048;-77
2021/10/06 09:35:17;;;;;;;6.72;1.50;;;;;12.50;100501.00;;;;4873773;29;20045;-78
2021/10/06 09:37:56;;;;;;;6.80;1.45;;;;;12.60;100503.00;;;;4872711;29;20052;-78
2021/10/06 09:40:29;;;;;;;14.07;3.63;;;;;12.70;100489.00;;;;4873273;29;20060;-77
2021/10/06 09:43:02;;;;;;;12.32;1.80;;;;;12.80;100490.00;;;;4874216;29;20048;-76
2021/10/06 09:45:33;;;;;;;11.80;1.98;;;;;12.80;100495.00;;;;4873885;29;20096;-77
2021/10/06 09:48:03;;;;;;;12.20;1.60;;;;;13.00;100517.00;;;;4874026;29;20052;-78
2021/10/06 09:50:36;;;;;;;8.77;1.85;;;;;13.10;100497.00;;;;4874064;29;20676;-77
2021/10/06 09:53:08;;;;;;;8.90;2.10;;;;;13.20;100505.00;;;;4874601;29;20053;-78
2021/10/06 09:55:39;;;;;;;10.38;2.53;;;;;13.30;100505.00;;;;4873707;29;20547;-79
2021/10/06 09:58:10;;;;;;;10.35;2.15;;;;;13.30;100481.00;;;;4874070;29;20045;-78
2021/10/06 10:00:42;;;;;;;10.18;1.92;;;;;13.50;100497.00;;;;4873877;29;20049;-78
2021/10/06 10:03:12;;;;;;;7.68;1.90;;;;;13.50;100510.00;;;;4873255;29;20552;-76
2021/10/06 10:05:42;;;;;;;9.90;2.38;;;;;13.60;100499.00;;;;4874150;29;20174;-75
2021/10/06 10:08:11;;;;;;;14.50;3.17;;;;;13.70;100521.00;;;;4873376;29;20037;-75
2021/10/06 10:10:41;;;;;;;12.20;1.80;;;;;14.00;100527.00;;;;4873556;29;20063;-78
2021/10/06 10:13:11;;;;;;;13.90;1.92;;;;;13.90;100535.00;;;;4873733;29;20052;-75
2021/10/06 10:15:40;;;;;;;14.75;3.28;;;;;13.90;100548.00;;;;4873531;29;20113;-83
2021/10/06 10:18:10;;;;;;;10.02;1.83;;;;;13.80;100557.00;;;;4873333;29;20049;-75
2021/10/06 10:20:42;;;;;;;20.67;3.05;;;;;13.90;100563.00;;;;4873638;29;20501;-75
2021/10/06 10:23:17;;;;;;;16.35;2.90;;;;;14.10;100552.00;;;;4873210;29;20049;-76
2021/10/06 10:25:47;;;;;;;18.75;4.80;;;;;14.10;100564.00;;;;4872885;29;20109;-75
2021/10/06 10:28:18;;;;;;;22.23;4.03;;;;;14.20;100567.00;;;;4873147;29;20061;-77
2021/10/06 10:30:59;;;;;;;22.38;3.78;;;;;14.20;100562.00;;;;4874039;29;20537;-76
2021/10/06 10:33:42;;;;;;;42.17;14.80;;;;;14.20;100546.00;;;;4872994;29;20049;-78
2021/10/06 10:36:33;;;;;;;22.40;4.38;;;;;14.40;100534.00;;;;4872658;29;20148;-76
2021/10/06 10:39:05;;;;;;;17.83;4.03;;;;;14.40;100540.00;;;;4872882;29;20523;-77
2021/10/06 10:41:49;;;;;;;18.75;3.92;;;;;14.50;100524.00;;;;4873509;29;20041;-78
2021/10/06 10:44:46;;;;;;;12.45;2.70;;;;;14.60;100524.00;;;;4873200;29;20429;-77
2021/10/06 10:47:18;;;;;;;5.45;2.70;;;;;14.60;100516.00;;;;4872352;29;20108;-80
2021/10/06 10:49:52;;;;;;;9.85;3.05;;;;;14.60;100504.00;;;;4873287;29;20043;-79
2021/10/06 10:52:49;;;;;;;10.32;2.97;;;;;14.80;100515.00;;;;4873125;29;20168;-78
2021/10/06 10:55:52;;;;;;;23.20;3.40;;;;;15.30;100369.00;;;;4872422;29;20109;-76
2021/10/06 10:58:28;;;;;;;10.70;2.65;;;;;19.50;100355.00;;;;4873101;29;20048;-78
2021/10/06 11:01:05;;;;;;;10.00;2.40;;;;;20.10;100475.00;;;;4872973;29;20129;-77
2021/10/06 11:04:12;;;;;;;32.08;3.95;;;;;20.50;100352.00;;;;4870882;29;20543;-77
2021/10/06 11:06:45;;;;;;;25.98;5.18;;;;;20.90;100360.00;;;;4871491;29;20619;-78
2021/10/06 11:09:30;;;;;;;21.42;3.08;;;;;20.50;100383.00;;;;4872748;29;20982;-78
2021/10/06 11:12:06;;;;;;;26.70;3.28;;;;;20.30;100424.00;;;;4872506;29;20045;-78
2021/10/06 11:14:40;;;;;;;33.47;3.17;;;;;21.70;100372.00;;;;4872465;29;20049;-76
2021/10/06 11:17:20;;;;;;;21.52;3.53;;;;;19.80;100440.00;;;;4872525;29;20470;-79
2021/10/06 11:19:55;;;;;;;38.70;5.25;;;;;19.50;100410.00;;;;4872489;29;20626;-79
2021/10/06 11:22:24;;;;;;;35.33;4.53;;;;;19.20;100509.00;;;;4872623;29;20128;-81
2021/10/06 11:25:01;;;;;;;12.95;2.92;;;;;19.00;100472.00;;;;4871712;29;20066;-79
2021/10/06 11:27:46;;;;;;;70.93;8.00;;;;;18.70;100523.00;;;;4871329;29;20064;-80
2021/10/06 11:30:18;;;;;;;22.52;3.47;;;;;18.30;100397.00;;;;4870821;29;20088;-78
2021/10/06 11:32:50;;;;;;;14.15;2.97;;;;;19.90;100464.00;;;;4872467;29;20049;-81
2021/10/06 11:35:21;;;;;;;14.98;3.13;;;;;23.00;100339.00;;;;4872677;29;20081;-78
2021/10/06 11:37:50;;;;;;;;;;;;;24.90;100326.00;;;;4872454;29;20060;-77
2021/10/06 11:40:20;;;;;;;32.13;3.83;;;;;24.40;100308.00;;;;4872247;29;19927;-78
2021/10/06 11:42:54;;;;;;;20.38;2.85;;;;;24.90;100281.00;;;;4872096;29;20100;-82
2021/10/06 11:45:23;;;;;;;24.38;2.92;;;;;26.10;100384.00;;;;4871908;29;20070;-82
2021/10/06 11:47:53;;;;;;;16.88;2.70;;;;;23.50;100504.00;;;;4872209;29;20045;-79
2021/10/06 11:50:23;;;;;;;20.88;2.45;;;;;20.80;100506.00;;;;4872921;29;20087;-78
2021/10/06 11:52:56;;;;;;;18.75;2.80;;;;;23.50;100338.00;;;;4872459;29;20064;-82
2021/10/06 11:55:26;;;;;;;18.80;2.55;;;;;24.50;100373.00;;;;4871845;29;20116;-82
2021/10/06 11:57:55;;;;;;;14.23;2.67;;;;;26.00;100348.00;;;;4872148;29;20108;-83
2021/10/06 12:00:25;;;;;;;8.30;1.98;;;;;24.80;100392.00;;;;4872332;29;20132;-84
2021/10/06 12:02:56;;;;;;;10.73;2.00;;;;;25.70;100350.00;;;;4871445;29;20057;-79
2021/10/06 12:05:26;;;;;;;;;;;;;27.10;100362.00;;;;4873605;29;20393;-81
2021/10/06 12:07:58;;;;;;;7.10;1.83;;;;;24.90;100393.00;;;;4875291;29;19927;-79
2021/10/06 12:10:29;;;;;;;12.43;2.35;;;;;25.40;100376.00;;;;4875761;29;20508;-80
2021/10/06 12:12:58;;;;;;;8.65;2.30;;;;;24.70;100479.00;;;;4875064;29;20433;-79
2021/10/06 12:15:28;;;;;;;11.80;2.45;;;;;25.20;100435.00;;;;4875947;29;20051;-83
2021/10/06 12:18:06;;;;;;;16.95;3.40;;;;;23.40;100504.00;;;;4875486;29;20045;-77
2021/10/06 12:20:53;;;;;;;15.70;2.65;;;;;21.70;100504.00;;;;4872250;29;20061;-82
2021/10/06 12:23:24;;;;;;;19.05;3.55;;;;;20.90;100510.00;;;;4857389;29;20069;-82
2021/10/06 12:25:57;;;;;;;19.52;3.20;;;;;20.80;100521.00;;;;4873111;29;20867;-82